Time;durP1;ratioP1;P1;durP2;ratioP2;P2;SDS_P1;SDS_P2;PMS_P1;PMS_P2;Temp;Humidity;BMP_temperature;BMP_pressure;BME280_temperature;BME280_humidity;BME280_pressure;Samples;Min_cycle;Max_cycle;Signal;HPM_P1;HPM_P2
2022/03/13 01:49:16;;;;;;;1999.90;999.90;;;;;;;;;;6208651;23;20905;-70
2022/03/13 01:52:04;;;;;;;1999.90;999.90;;;;;;;;;;6214118;23;20223;-69
2022/03/13 01:54:49;;;;;;;1999.90;999.90;;;;;;;;;;6214081;23;20627;-69
2022/03/13 01:57:37;;;;;;;1999.90;999.90;;;;;;;;;;6203777;23;20205;-68
2022/03/13 02:00:22;;;;;;;1999.90;999.90;;;;;;;;;;6184003;23;20268;-69
2022/03/13 02:03:07;;;;;;;1999.90;999.90;;;;;;;;;;6182922;23;20173;-69
2022/03/13 02:05:54;;;;;;;1999.90;999.90;;;;;;;;;;6182933;23;20170;-68
2022/03/13 02:08:39;;;;;;;1999.90;999.90;;;;;;;;;;6181737;23;20261;-69
2022/03/13 02:11:25;;;;;;;1999.90;999.90;;;;;;;;;;6183629;23;20347;-70
2022/03/13 02:14:11;;;;;;;1999.90;999.90;;;;;;;;;;6183807;23;20170;-70
2022/03/13 02:16:56;;;;;;;1999.90;999.90;;;;;;;;;;6183673;23;20168;-70
2022/03/13 02:19:41;;;;;;;1999.90;999.90;;;;;;;;;;6182636;23;20233;-69
2022/03/13 02:22:27;;;;;;;1999.90;999.90;;;;;;;;;;6183954;23;20228;-69
2022/03/13 02:25:15;;;;;;;1999.90;999.90;;;;;;;;;;6184031;23;20169;-69
2022/03/13 02:28:01;;;;;;;1999.90;999.90;;;;;;;;;;6182711;23;20723;-69
2022/03/13 02:30:46;;;;;;;1999.90;999.90;;;;;;;;;;6183801;23;20165;-69
2022/03/13 02:33:32;;;;;;;1999.90;999.90;;;;;;;;;;6183647;23;20170;-69
2022/03/13 02:36:23;;;;;;;1999.90;999.90;;;;;;;;;;6184034;23;20170;-69
2022/03/13 02:39:09;;;;;;;1999.90;999.90;;;;;;;;;;6182518;23;20535;-69
2022/03/13 02:41:54;;;;;;;1999.90;999.90;;;;;;;;;;6183843;23;20250;-69
2022/03/13 02:44:40;;;;;;;1999.90;999.90;;;;;;;;;;6183824;23;20246;-69
2022/03/13 02:47:25;;;;;;;1999.90;999.90;;;;;;;;;;6183371;23;20216;-69
2022/03/13 02:50:10;;;;;;;1999.90;999.90;;;;;;;;;;6183305;23;20182;-70
2022/03/13 02:52:55;;;;;;;1999.90;999.90;;;;;;;;;;6185327;23;20194;-69
2022/03/13 02:55:40;;;;;;;1999.90;999.90;;;;;;;;;;6185825;23;20173;-69
2022/03/13 02:58:25;;;;;;;1999.90;999.90;;;;;;;;;;6184515;23;20534;-69
2022/03/13 03:01:11;;;;;;;1999.90;999.90;;;;;;;;;;6185776;23;20230;-69
2022/03/13 03:03:57;;;;;;;1999.90;999.90;;;;;;;;;;6185307;23;20214;-69
2022/03/13 03:06:50;;;;;;;1999.90;999.90;;;;;;;;;;6185618;23;20217;-69
2022/03/13 03:09:36;;;;;;;1999.90;999.90;;;;;;;;;;6184532;23;20210;-68
2022/03/13 03:12:20;;;;;;;1999.90;999.90;;;;;;;;;;6185594;23;20174;-69
2022/03/13 03:15:06;;;;;;;1999.90;999.90;;;;;;;;;;6185649;23;20171;-67
2022/03/13 03:17:52;;;;;;;1999.90;999.90;;;;;;;;;;6184149;23;20281;-68
2022/03/13 03:20:38;;;;;;;1999.90;999.90;;;;;;;;;;6185080;23;20721;-69
2022/03/13 03:23:23;;;;;;;1999.90;999.90;;;;;;;;;;6185211;23;20239;-69
2022/03/13 03:26:08;;;;;;;1999.90;999.90;;;;;;;;;;6185503;23;20177;-69
2022/03/13 03:28:53;;;;;;;1999.90;999.90;;;;;;;;;;6184192;23;20249;-70
2022/03/13 03:31:40;;;;;;;1999.90;999.90;;;;;;;;;;6185412;23;20166;-68
2022/03/13 03:34:27;;;;;;;1999.90;999.90;;;;;;;;;;6184998;23;20230;-69
2022/03/13 03:37:12;;;;;;;1999.90;999.90;;;;;;;;;;6185296;23;20676;-69
2022/03/13 03:39:57;;;;;;;1999.90;999.90;;;;;;;;;;6184335;23;20243;-70
2022/03/13 03:42:42;;;;;;;1999.90;999.90;;;;;;;;;;6185243;23;20537;-69
2022/03/13 03:45:27;;;;;;;1999.90;999.90;;;;;;;;;;6185183;23;20166;-69
2022/03/13 03:48:12;;;;;;;1999.90;999.90;;;;;;;;;;6184139;23;20330;-69
2022/03/13 03:50:59;;;;;;;1999.90;999.90;;;;;;;;;;6185118;23;20171;-67
2022/03/13 03:53:44;;;;;;;1999.90;999.90;;;;;;;;;;6185312;23;20170;-69
2022/03/13 03:56:29;;;;;;;1999.90;999.90;;;;;;;;;;6185278;23;20169;-69
2022/03/13 03:59:14;;;;;;;1999.90;999.90;;;;;;;;;;6183896;23;20259;-69
2022/03/13 04:01:59;;;;;;;1999.90;999.90;;;;;;;;;;6184990;23;20241;-68
2022/03/13 04:04:43;;;;;;;1999.90;999.90;;;;;;;;;;6183902;23;20229;-69
2022/03/13 04:07:30;;;;;;;1999.90;999.90;;;;;;;;;;6183658;23;20256;-69
2022/03/13 04:10:15;;;;;;;1999.90;999.90;;;;;;;;;;6183780;23;20166;-70
2022/03/13 04:13:01;;;;;;;1999.90;999.90;;;;;;;;;;6184791;23;20510;-69
2022/03/13 04:15:46;;;;;;;1999.90;999.90;;;;;;;;;;6184926;23;20247;-69
2022/03/13 04:18:31;;;;;;;1999.90;999.90;;;;;;;;;;6183754;23;20221;-69
2022/03/13 04:21:16;;;;;;;1999.90;999.90;;;;;;;;;;6184797;23;20253;-68
2022/03/13 04:24:03;;;;;;;1999.90;999.90;;;;;;;;;;6184765;23;20173;-68
2022/03/13 04:26:49;;;;;;;1999.90;999.90;;;;;;;;;;6183917;23;20434;-69
2022/03/13 04:29:34;;;;;;;1999.90;999.90;;;;;;;;;;6183780;23;20364;-69
2022/03/13 04:32:22;;;;;;;1999.90;999.90;;;;;;;;;;6184953;23;20221;-69
2022/03/13 04:35:08;;;;;;;1999.90;999.90;;;;;;;;;;6184628;23;20598;-69
2022/03/13 04:37:53;;;;;;;1999.90;999.90;;;;;;;;;;6183724;23;20573;-70
2022/03/13 04:40:39;;;;;;;1999.90;999.90;;;;;;;;;;6184657;23;20209;-69
2022/03/13 04:43:24;;;;;;;1999.90;999.90;;;;;;;;;;6184507;23;20550;-69
2022/03/13 04:46:09;;;;;;;1999.90;999.90;;;;;;;;;;6184725;23;20214;-69
2022/03/13 04:48:54;;;;;;;1999.90;999.90;;;;;;;;;;6183425;23;20209;-69
2022/03/13 04:51:39;;;;;;;1999.90;999.90;;;;;;;;;;6184642;23;20170;-69
2022/03/13 04:54:24;;;;;;;1999.90;999.90;;;;;;;;;;6184283;23;20443;-70
2022/03/13 04:57:10;;;;;;;1999.90;999.90;;;;;;;;;;6184461;23;20452;-68
2022/03/13 04:59:55;;;;;;;1999.90;999.90;;;;;;;;;;6183450;23;20209;-69
2022/03/13 05:02:40;;;;;;;1999.90;999.90;;;;;;;;;;6184427;23;20600;-69
2022/03/13 05:05:25;;;;;;;1999.90;999.90;;;;;;;;;;6184466;23;20245;-69
2022/03/13 05:08:14;;;;;;;1999.90;999.90;;;;;;;;;;6183312;23;20201;-68
2022/03/13 05:10:59;;;;;;;1999.90;999.90;;;;;;;;;;6184306;23;20642;-69
2022/03/13 05:13:46;;;;;;;1999.90;999.90;;;;;;;;;;6184355;23;20262;-69
2022/03/13 05:16:31;;;;;;;1999.90;999.90;;;;;;;;;;6184237;23;20502;-68
2022/03/13 05:19:16;;;;;;;1999.90;999.90;;;;;;;;;;6183224;23;20170;-68
2022/03/13 05:22:01;;;;;;;1999.90;999.90;;;;;;;;;;6184341;23;20221;-69
2022/03/13 05:24:46;;;;;;;1999.90;999.90;;;;;;;;;;6184397;23;20172;-69
2022/03/13 05:27:31;;;;;;;1999.90;999.90;;;;;;;;;;6183859;23;20341;-69
2022/03/13 05:30:20;;;;;;;1999.90;999.90;;;;;;;;;;6184313;23;20496;-70
2022/03/13 05:33:05;;;;;;;1999.90;999.90;;;;;;;;;;6184122;23;20505;-69
2022/03/13 05:35:50;;;;;;;1999.90;999.90;;;;;;;;;;6184331;23;20209;-68
2022/03/13 05:38:37;;;;;;;1999.90;999.90;;;;;;;;;;6183062;23;20262;-69
2022/03/13 05:41:22;;;;;;;1999.90;999.90;;;;;;;;;;6184183;23;20193;-69
2022/03/13 05:44:09;;;;;;;1999.90;999.90;;;;;;;;;;6183790;23;20169;-68
2022/03/13 05:46:55;;;;;;;1999.90;999.90;;;;;;;;;;6183820;23;20214;-68
2022/03/13 05:49:40;;;;;;;1999.90;999.90;;;;;;;;;;6183200;23;20252;-69
2022/03/13 05:52:25;;;;;;;1999.90;999.90;;;;;;;;;;6183803;23;20167;-69
2022/03/13 05:55:11;;;;;;;1999.90;999.90;;;;;;;;;;6184164;23;20170;-68
2022/03/13 05:57:56;;;;;;;1999.90;999.90;;;;;;;;;;6182953;23;20206;-69
2022/03/13 06:00:41;;;;;;;1999.90;999.90;;;;;;;;;;6183399;23;20404;-69
2022/03/13 06:03:28;;;;;;;1999.90;999.90;;;;;;;;;;6184037;23;20190;-69
2022/03/13 06:06:14;;;;;;;1999.90;999.90;;;;;;;;;;6184099;23;20689;-69
2022/03/13 06:08:59;;;;;;;1999.90;999.90;;;;;;;;;;6182838;23;20251;-68
2022/03/13 06:11:44;;;;;;;1999.90;999.90;;;;;;;;;;6183821;23;20175;-70
2022/03/13 06:14:29;;;;;;;1999.90;999.90;;;;;;;;;;6183906;23;20289;-69
2022/03/13 06:17:14;;;;;;;1999.90;999.90;;;;;;;;;;6182876;23;20205;-69
2022/03/13 06:20:00;;;;;;;1999.90;999.90;;;;;;;;;;6181751;23;20249;-69
2022/03/13 06:22:46;;;;;;;1999.90;999.90;;;;;;;;;;6182509;23;20247;-69
2022/03/13 06:25:31;;;;;;;1999.90;999.90;;;;;;;;;;6182535;23;20174;-69
2022/03/13 06:28:16;;;;;;;1999.90;999.90;;;;;;;;;;6181685;23;20205;-69
2022/03/13 06:31:01;;;;;;;1999.90;999.90;;;;;;;;;;6180923;23;20422;-65
2022/03/13 06:33:46;;;;;;;1999.90;999.90;;;;;;;;;;6182122;23;20218;-68
2022/03/13 06:36:34;;;;;;;1999.90;999.90;;;;;;;;;;6183732;23;20246;-69
2022/03/13 06:39:19;;;;;;;1999.90;999.90;;;;;;;;;;6183015;23;20170;-70
2022/03/13 06:42:04;;;;;;;1999.90;999.90;;;;;;;;;;6183433;23;20245;-69
2022/03/13 06:44:49;;;;;;;1999.90;999.90;;;;;;;;;;6183758;23;20166;-69
2022/03/13 06:47:34;;;;;;;1999.90;999.90;;;;;;;;;;6182113;23;20232;-67
2022/03/13 06:50:20;;;;;;;1999.90;999.90;;;;;;;;;;6182516;23;20248;-67
2022/03/13 06:53:07;;;;;;;1999.90;999.90;;;;;;;;;;6182595;23;20626;-69
2022/03/13 06:55:52;;;;;;;1999.90;999.90;;;;;;;;;;6182626;23;20310;-69
2022/03/13 06:58:39;;;;;;;1999.90;999.90;;;;;;;;;;6181510;23;20201;-69
2022/03/13 07:01:24;;;;;;;1999.90;999.90;;;;;;;;;;6182436;23;20776;-69
2022/03/13 07:04:09;;;;;;;1999.90;999.90;;;;;;;;;;6182709;23;20242;-68
2022/03/13 07:06:54;;;;;;;1999.90;999.90;;;;;;;;;;6183411;23;20271;-69
2022/03/13 07:09:40;;;;;;;1999.90;999.90;;;;;;;;;;6182799;23;20171;-69
2022/03/13 07:12:26;;;;;;;1999.90;999.90;;;;;;;;;;6183567;23;20222;-70
2022/03/13 07:15:12;;;;;;;1999.90;999.90;;;;;;;;;;6183543;23;20659;-69
2022/03/13 07:17:57;;;;;;;1999.90;999.90;;;;;;;;;;6182524;23;20212;-69
2022/03/13 07:20:42;;;;;;;1999.90;999.90;;;;;;;;;;6183611;23;20577;-70
2022/03/13 07:23:27;;;;;;;1999.90;999.90;;;;;;;;;;6183406;23;20620;-69
2022/03/13 07:26:14;;;;;;;1999.90;999.90;;;;;;;;;;6183725;23;20185;-68
2022/03/13 07:29:01;;;;;;;1999.90;999.90;;;;;;;;;;6182662;23;20740;-68
2022/03/13 07:31:46;;;;;;;1999.90;999.90;;;;;;;;;;6183120;23;20246;-69
2022/03/13 07:34:30;;;;;;;1999.90;999.90;;;;;;;;;;6183693;23;20504;-69
2022/03/13 07:37:15;;;;;;;1999.90;999.90;;;;;;;;;;6183359;23;20206;-68
2022/03/13 07:40:01;;;;;;;1999.90;999.90;;;;;;;;;;6184378;23;20700;-66
2022/03/13 07:42:47;;;;;;;1999.90;999.90;;;;;;;;;;6185178;23;20614;-69
2022/03/13 07:45:32;;;;;;;1999.90;999.90;;;;;;;;;;6184333;23;20170;-68
2022/03/13 07:48:17;;;;;;;1999.90;999.90;;;;;;;;;;6184119;23;20214;-66
2022/03/13 07:51:02;;;;;;;1999.90;999.90;;;;;;;;;;6185254;23;20509;-69
2022/03/13 07:53:47;;;;;;;1999.90;999.90;;;;;;;;;;6185279;23;20253;-67
2022/03/13 07:56:32;;;;;;;1999.90;999.90;;;;;;;;;;6185527;23;20165;-68
2022/03/13 07:59:18;;;;;;;1999.90;999.90;;;;;;;;;;6183234;23;20170;-69
2022/03/13 08:02:04;;;;;;;1999.90;999.90;;;;;;;;;;6183368;23;20277;-68
2022/03/13 08:04:49;;;;;;;1999.90;999.90;;;;;;;;;;6184683;23;20245;-68
2022/03/13 08:07:34;;;;;;;1999.90;999.90;;;;;;;;;;6183130;23;20691;-70
2022/03/13 08:10:20;;;;;;;1999.90;999.90;;;;;;;;;;6184757;23;20162;-69
2022/03/13 08:13:05;;;;;;;1999.90;999.90;;;;;;;;;;6183649;23;20245;-70
2022/03/13 08:15:52;;;;;;;1999.90;999.90;;;;;;;;;;6184617;23;20173;-68
2022/03/13 08:18:36;;;;;;;1999.90;999.90;;;;;;;;;;6183828;23;20205;-69
2022/03/13 08:21:21;;;;;;;1999.90;999.90;;;;;;;;;;6184612;23;20193;-70
2022/03/13 08:24:07;;;;;;;1999.90;999.90;;;;;;;;;;6185081;23;20170;-69
2022/03/13 08:26:52;;;;;;;1999.90;999.90;;;;;;;;;;6184541;23;20259;-69
2022/03/13 08:29:37;;;;;;;1999.90;999.90;;;;;;;;;;6183968;23;20166;-68
2022/03/13 08:32:23;;;;;;;1999.90;999.90;;;;;;;;;;6183826;23;20167;-71
2022/03/13 08:35:09;;;;;;;1999.90;999.90;;;;;;;;;;6184641;23;20170;-69
2022/03/13 08:37:53;;;;;;;1999.90;999.90;;;;;;;;;;6183863;23;20679;-69
2022/03/13 08:40:38;;;;;;;1999.90;999.90;;;;;;;;;;6185739;23;20245;-68
2022/03/13 08:43:23;;;;;;;1999.90;999.90;;;;;;;;;;6184862;23;20221;-69
2022/03/13 08:46:09;;;;;;;1999.90;999.90;;;;;;;;;;6184951;23;20629;-68
2022/03/13 08:48:56;;;;;;;1999.90;999.90;;;;;;;;;;6183995;23;20542;-69
2022/03/13 08:51:41;;;;;;;1999.90;999.90;;;;;;;;;;6184698;23;20166;-69
2022/03/13 08:54:25;;;;;;;1999.90;999.90;;;;;;;;;;6184538;23;20194;-69
2022/03/13 08:57:11;;;;;;;1999.90;999.90;;;;;;;;;;6184784;23;20214;-69
2022/03/13 08:59:56;;;;;;;1999.90;999.90;;;;;;;;;;6183156;23;20170;-70
2022/03/13 09:02:42;;;;;;;1999.90;999.90;;;;;;;;;;6184659;23;20229;-67
2022/03/13 09:05:28;;;;;;;1999.90;999.90;;;;;;;;;;6184689;23;20166;-70
2022/03/13 09:08:13;;;;;;;1999.90;999.90;;;;;;;;;;6183735;23;20205;-70
2022/03/13 09:10:58;;;;;;;1999.90;999.90;;;;;;;;;;6183276;23;20472;-68
2022/03/13 09:13:43;;;;;;;1999.90;999.90;;;;;;;;;;6184407;23;20182;-69
2022/03/13 09:16:29;;;;;;;1999.90;999.90;;;;;;;;;;6184503;23;20170;-70
2022/03/13 09:19:14;;;;;;;1999.90;999.90;;;;;;;;;;6183774;23;20648;-70
2022/03/13 09:22:00;;;;;;;1999.90;999.90;;;;;;;;;;6184302;23;20193;-69
2022/03/13 09:24:46;;;;;;;1999.90;999.90;;;;;;;;;;6184307;23;20294;-67
2022/03/13 09:27:31;;;;;;;1999.90;999.90;;;;;;;;;;6183701;23;20582;-69
2022/03/13 09:30:16;;;;;;;1999.90;999.90;;;;;;;;;;6184355;23;20172;-69
2022/03/13 09:33:01;;;;;;;1999.90;999.90;;;;;;;;;;6184932;23;20170;-70
2022/03/13 09:35:47;;;;;;;1999.90;999.90;;;;;;;;;;6184443;23;20190;-69
2022/03/13 09:38:34;;;;;;;1999.90;999.90;;;;;;;;;;6183471;23;20205;-69
2022/03/13 09:41:19;;;;;;;1999.90;999.90;;;;;;;;;;6183620;23;20724;-69
2022/03/13 09:44:05;;;;;;;1999.90;999.90;;;;;;;;;;6183883;23;20174;-69
2022/03/13 09:46:50;;;;;;;1999.90;999.90;;;;;;;;;;6184078;23;20167;-69
2022/03/13 09:49:35;;;;;;;1999.90;999.90;;;;;;;;;;6182844;23;20176;-70
2022/03/13 09:52:20;;;;;;;1999.90;999.90;;;;;;;;;;6185128;23;20168;-70
2022/03/13 09:55:07;;;;;;;1999.90;999.90;;;;;;;;;;6184061;23;20240;-69
2022/03/13 09:57:52;;;;;;;1999.90;999.90;;;;;;;;;;6182741;23;20208;-69
2022/03/13 10:00:38;;;;;;;1999.90;999.90;;;;;;;;;;6183513;23;20235;-68
2022/03/13 10:03:23;;;;;;;1999.90;999.90;;;;;;;;;;6184688;23;20347;-69
2022/03/13 10:06:08;;;;;;;1999.90;999.90;;;;;;;;;;6184260;23;20172;-69
2022/03/13 10:08:55;;;;;;;1999.90;999.90;;;;;;;;;;6183485;23;20731;-70
2022/03/13 10:11:41;;;;;;;1999.90;999.90;;;;;;;;;;6184585;23;20228;-70
2022/03/13 10:14:26;;;;;;;1999.90;999.90;;;;;;;;;;6185082;23;20678;-70
2022/03/13 10:17:15;;;;;;;1999.90;999.90;;;;;;;;;;6185073;23;20204;-69
2022/03/13 10:20:12;;;;;;;1999.90;999.90;;;;;;;;;;6184139;23;20170;-69
2022/03/13 10:23:03;;;;;;;1999.90;999.90;;;;;;;;;;6185030;23;20169;-69
2022/03/13 10:25:49;;;;;;;1999.90;999.90;;;;;;;;;;6184599;23;20168;-70
2022/03/13 10:28:36;;;;;;;1999.90;999.90;;;;;;;;;;6184180;23;20269;-69
2022/03/13 10:31:21;;;;;;;1999.90;999.90;;;;;;;;;;6183976;23;20169;-70
2022/03/13 10:34:06;;;;;;;1999.90;999.90;;;;;;;;;;6185332;23;20289;-69
2022/03/13 10:36:51;;;;;;;1999.90;999.90;;;;;;;;;;6184894;23;20174;-69
2022/03/13 10:39:36;;;;;;;1999.90;999.90;;;;;;;;;;6184219;23;20177;-69
2022/03/13 10:42:29;;;;;;;1999.90;999.90;;;;;;;;;;6184732;23;20258;-69
2022/03/13 10:45:33;;;;;;;1999.90;999.90;;;;;;;;;;6184772;23;20224;-69
2022/03/13 10:48:21;;;;;;;1999.90;999.90;;;;;;;;;;6182493;23;20683;-68
2022/03/13 10:51:08;;;;;;;1999.90;999.90;;;;;;;;;;6183464;23;20165;-69
2022/03/13 10:53:53;;;;;;;1999.90;999.90;;;;;;;;;;6184331;23;20177;-68
2022/03/13 10:56:38;;;;;;;1999.90;999.90;;;;;;;;;;6184762;23;20500;-69
2022/03/13 10:59:23;;;;;;;1999.90;999.90;;;;;;;;;;6183158;23;20182;-69
2022/03/13 11:02:12;;;;;;;1999.90;999.90;;;;;;;;;;6183061;23;20243;-67
2022/03/13 11:05:00;;;;;;;1999.90;999.90;;;;;;;;;;6183847;23;20550;-68
2022/03/13 11:07:45;;;;;;;1999.90;999.90;;;;;;;;;;6183560;23;20217;-68
2022/03/13 11:10:30;;;;;;;1999.90;999.90;;;;;;;;;;6183535;23;20169;-68
2022/03/13 11:13:15;;;;;;;1999.90;999.90;;;;;;;;;;6183410;23;20862;-69
2022/03/13 11:16:03;;;;;;;1999.90;999.90;;;;;;;;;;6185896;23;20170;-68
2022/03/13 11:18:51;;;;;;;1999.90;999.90;;;;;;;;;;6184480;23;20680;-67
2022/03/13 11:21:37;;;;;;;1999.90;999.90;;;;;;;;;;6185207;23;20537;-68
2022/03/13 11:24:23;;;;;;;1999.90;999.90;;;;;;;;;;6185378;23;20170;-68
2022/03/13 11:27:11;;;;;;;1999.90;999.90;;;;;;;;;;6185128;23;20281;-70
2022/03/13 11:29:57;;;;;;;1999.90;999.90;;;;;;;;;;6184606;23;20174;-69
2022/03/13 11:32:46;;;;;;;1999.90;999.90;;;;;;;;;;6184878;23;20197;-70
2022/03/13 11:35:31;;;;;;;1999.90;999.90;;;;;;;;;;6183278;23;20182;-66
2022/03/13 11:38:22;;;;;;;1999.90;999.90;;;;;;;;;;6181820;23;20326;-68
2022/03/13 11:41:12;;;;;;;1999.90;999.90;;;;;;;;;;6183244;23;20165;-67
2022/03/13 11:44:02;;;;;;;1999.90;999.90;;;;;;;;;;6183500;23;20170;-66
2022/03/13 11:46:48;;;;;;;1999.90;999.90;;;;;;;;;;6182965;23;20290;-68
2022/03/13 11:49:38;;;;;;;1999.90;999.90;;;;;;;;;;6182440;23;20186;-68
2022/03/13 11:52:28;;;;;;;1999.90;999.90;;;;;;;;;;6183265;23;20163;-66
2022/03/13 11:55:15;;;;;;;1999.90;999.90;;;;;;;;;;6183063;23;20630;-68
2022/03/13 11:58:01;;;;;;;1999.90;999.90;;;;;;;;;;6182177;23;20333;-68
2022/03/13 12:00:47;;;;;;;1999.90;999.90;;;;;;;;;;6182907;23;20170;-68
2022/03/13 12:03:32;;;;;;;1999.90;999.90;;;;;;;;;;6182873;23;20561;-68
2022/03/13 12:06:31;;;;;;;1999.90;999.90;;;;;;;;;;6183040;23;20622;-67
2022/03/13 12:09:17;;;;;;;1999.90;999.90;;;;;;;;;;6181419;23;20166;-67
2022/03/13 12:12:05;;;;;;;1999.90;999.90;;;;;;;;;;6182843;23;20167;-69
2022/03/13 12:14:51;;;;;;;1999.90;999.90;;;;;;;;;;6181733;23;20461;-67
2022/03/13 12:17:44;;;;;;;1999.90;999.90;;;;;;;;;;6182014;23;20206;-69
2022/03/13 12:20:31;;;;;;;1999.90;999.90;;;;;;;;;;6182443;23;20175;-69
2022/03/13 12:23:27;;;;;;;1999.90;999.90;;;;;;;;;;6182611;23;20210;-69
2022/03/13 12:26:13;;;;;;;1999.90;999.90;;;;;;;;;;6182736;23;20167;-69
2022/03/13 12:29:00;;;;;;;1999.90;999.90;;;;;;;;;;6180911;23;20685;-67
2022/03/13 12:31:46;;;;;;;1999.90;999.90;;;;;;;;;;6182848;23;20171;-67
2022/03/13 12:34:31;;;;;;;1999.90;999.90;;;;;;;;;;6183008;23;20170;-69
2022/03/13 12:37:16;;;;;;;1999.90;999.90;;;;;;;;;;6182078;23;20253;-69
2022/03/13 12:40:02;;;;;;;1999.90;999.90;;;;;;;;;;6182066;23;20166;-68
2022/03/13 12:42:52;;;;;;;1999.90;999.90;;;;;;;;;;6182915;23;20194;-68
2022/03/13 12:45:51;;;;;;;1999.90;999.90;;;;;;;;;;6182395;23;20400;-69
2022/03/13 12:48:37;;;;;;;1999.90;999.90;;;;;;;;;;6181962;23;20210;-69
2022/03/13 12:51:34;;;;;;;1999.90;999.90;;;;;;;;;;6182544;23;20174;-69
2022/03/13 12:54:25;;;;;;;1999.90;999.90;;;;;;;;;;6182395;23;20238;-69
2022/03/13 12:57:10;;;;;;;1999.90;999.90;;;;;;;;;;6182308;23;20214;-67
2022/03/13 12:59:56;;;;;;;1999.90;999.90;;;;;;;;;;6181490;23;20272;-70
2022/03/13 13:02:43;;;;;;;1999.90;999.90;;;;;;;;;;6182885;23;20194;-69
2022/03/13 13:05:28;;;;;;;1999.90;999.90;;;;;;;;;;6182496;23;20175;-70
2022/03/13 13:08:13;;;;;;;1999.90;999.90;;;;;;;;;;6181137;23;20206;-69
2022/03/13 13:10:58;;;;;;;1999.90;999.90;;;;;;;;;;6182464;23;20207;-70
2022/03/13 13:13:56;;;;;;;1999.90;999.90;;;;;;;;;;6182519;23;20165;-68
2022/03/13 13:16:41;;;;;;;1999.90;999.90;;;;;;;;;;6182068;23;20174;-70
2022/03/13 13:19:27;;;;;;;1999.90;999.90;;;;;;;;;;6181246;23;20245;-70
2022/03/13 13:22:12;;;;;;;1999.90;999.90;;;;;;;;;;6182207;23;20526;-69
2022/03/13 13:24:58;;;;;;;1999.90;999.90;;;;;;;;;;6182013;23;20169;-69
2022/03/13 13:27:44;;;;;;;1999.90;999.90;;;;;;;;;;6182122;23;20539;-71
2022/03/13 13:30:30;;;;;;;1999.90;999.90;;;;;;;;;;6182064;23;20693;-67
2022/03/13 13:33:15;;;;;;;1999.90;999.90;;;;;;;;;;6181575;23;20629;-68
2022/03/13 13:36:04;;;;;;;1999.90;999.90;;;;;;;;;;6181533;23;20248;-68
2022/03/13 13:38:48;;;;;;;1999.90;999.90;;;;;;;;;;6180649;23;20293;-67
2022/03/13 13:41:34;;;;;;;1999.90;999.90;;;;;;;;;;6181632;23;20209;-68
2022/03/13 13:44:29;;;;;;;1999.90;999.90;;;;;;;;;;6182112;23;20169;-68
2022/03/13 13:47:22;;;;;;;1999.90;999.90;;;;;;;;;;6180518;23;20428;-68
2022/03/13 13:50:13;;;;;;;1999.90;999.90;;;;;;;;;;6181541;23;20221;-68
2022/03/13 13:53:01;;;;;;;1999.90;999.90;;;;;;;;;;6182021;23;20241;-64
2022/03/13 13:55:46;;;;;;;1999.90;999.90;;;;;;;;;;6181887;23;20254;-67
2022/03/13 13:58:34;;;;;;;1999.90;999.90;;;;;;;;;;6180901;23;20206;-67
2022/03/13 14:01:23;;;;;;;1999.90;999.90;;;;;;;;;;6181650;23;20256;-69
2022/03/13 14:04:08;;;;;;;1999.90;999.90;;;;;;;;;;6181802;23;20257;-69
2022/03/13 14:06:54;;;;;;;1999.90;999.90;;;;;;;;;;6181456;23;20664;-68
2022/03/13 14:09:41;;;;;;;1999.90;999.90;;;;;;;;;;6180854;23;20217;-65
2022/03/13 14:12:26;;;;;;;1999.90;999.90;;;;;;;;;;6181531;23;20165;-67
2022/03/13 14:15:11;;;;;;;1999.90;999.90;;;;;;;;;;6183815;23;20167;-69
2022/03/13 14:17:56;;;;;;;1999.90;999.90;;;;;;;;;;6181281;23;20401;-69
2022/03/13 14:20:41;;;;;;;1999.90;999.90;;;;;;;;;;6184179;23;20302;-68
2022/03/13 14:23:25;;;;;;;1999.90;999.90;;;;;;;;;;6183675;23;20198;-68
2022/03/13 14:26:12;;;;;;;1999.90;999.90;;;;;;;;;;6183892;23;20170;-67
2022/03/13 14:28:57;;;;;;;1999.90;999.90;;;;;;;;;;6183035;23;20206;-64
2022/03/13 14:31:42;;;;;;;1999.90;999.90;;;;;;;;;;6184528;23;20166;-69
2022/03/13 14:34:27;;;;;;;1999.90;999.90;;;;;;;;;;6184040;23;20225;-67
2022/03/13 14:37:12;;;;;;;1999.90;999.90;;;;;;;;;;6183469;23;20204;-69
2022/03/13 14:39:57;;;;;;;1999.90;999.90;;;;;;;;;;6183350;23;20171;-67
2022/03/13 14:42:43;;;;;;;1999.90;999.90;;;;;;;;;;6183962;23;20189;-69
2022/03/13 14:45:28;;;;;;;1999.90;999.90;;;;;;;;;;6183667;23;20205;-68
2022/03/13 14:48:13;;;;;;;1999.90;999.90;;;;;;;;;;6183891;23;20329;-69
2022/03/13 14:50:58;;;;;;;1999.90;999.90;;;;;;;;;;6186508;23;20170;-68
2022/03/13 14:53:43;;;;;;;1999.90;999.90;;;;;;;;;;6186562;23;20190;-68
2022/03/13 14:56:28;;;;;;;1999.90;999.90;;;;;;;;;;6185682;23;20201;-67
2022/03/13 14:59:14;;;;;;;1999.90;999.90;;;;;;;;;;6183092;23;20237;-70
2022/03/13 15:01:58;;;;;;;1999.90;999.90;;;;;;;;;;6184160;23;20171;-70
2022/03/13 15:04:43;;;;;;;1999.90;999.90;;;;;;;;;;6185887;23;20170;-68
2022/03/13 15:07:28;;;;;;;1999.90;999.90;;;;;;;;;;6186048;23;20710;-68
2022/03/13 15:10:13;;;;;;;1999.90;999.90;;;;;;;;;;6186129;23;20501;-69
2022/03/13 15:12:58;;;;;;;1999.90;999.90;;;;;;;;;;6185800;23;20669;-71
2022/03/13 15:15:46;;;;;;;1999.90;999.90;;;;;;;;;;6186670;23;20166;-69
2022/03/13 15:18:32;;;;;;;1999.90;999.90;;;;;;;;;;6185192;23;20253;-68
2022/03/13 15:21:17;;;;;;;1999.90;999.90;;;;;;;;;;6185721;23;20170;-66
2022/03/13 15:24:02;;;;;;;1999.90;999.90;;;;;;;;;;6185992;23;20190;-67
2022/03/13 15:26:47;;;;;;;1999.90;999.90;;;;;;;;;;6185703;23;20169;-69
2022/03/13 15:29:32;;;;;;;1999.90;999.90;;;;;;;;;;6184950;23;20250;-66
2022/03/13 15:32:18;;;;;;;1999.90;999.90;;;;;;;;;;6185865;23;20218;-68
2022/03/13 15:35:04;;;;;;;1999.90;999.90;;;;;;;;;;6185832;23;20358;-68
2022/03/13 15:37:49;;;;;;;1999.90;999.90;;;;;;;;;;6184818;23;20205;-67
2022/03/13 15:40:34;;;;;;;1999.90;999.90;;;;;;;;;;6185813;23;20167;-69
2022/03/13 15:43:19;;;;;;;1999.90;999.90;;;;;;;;;;6186026;23;20194;-69
2022/03/13 15:46:05;;;;;;;1999.90;999.90;;;;;;;;;;6186202;23;20677;-70
2022/03/13 15:48:51;;;;;;;1999.90;999.90;;;;;;;;;;6184494;23;20462;-68
2022/03/13 15:51:36;;;;;;;1999.90;999.90;;;;;;;;;;6185666;23;20221;-67
2022/03/13 15:54:22;;;;;;;1999.90;999.90;;;;;;;;;;6186033;23;20589;-69
2022/03/13 15:57:07;;;;;;;1999.90;999.90;;;;;;;;;;6185866;23;20547;-67
2022/03/13 15:59:54;;;;;;;1999.90;999.90;;;;;;;;;;6184173;23;20166;-66
2022/03/13 16:02:40;;;;;;;1999.90;999.90;;;;;;;;;;6185719;23;20189;-68
2022/03/13 16:05:27;;;;;;;1999.90;999.90;;;;;;;;;;6185458;23;20260;-70
2022/03/13 16:08:11;;;;;;;1999.90;999.90;;;;;;;;;;6184400;23;20534;-69
2022/03/13 16:10:56;;;;;;;1999.90;999.90;;;;;;;;;;6185533;23;20167;-69
2022/03/13 16:13:42;;;;;;;1999.90;999.90;;;;;;;;;;6185465;23;20165;-70
2022/03/13 16:16:28;;;;;;;1999.90;999.90;;;;;;;;;;6185518;23;20209;-69
2022/03/13 16:19:14;;;;;;;1999.90;999.90;;;;;;;;;;6184564;23;20170;-68
2022/03/13 16:22:01;;;;;;;1999.90;999.90;;;;;;;;;;6185468;23;20237;-68
2022/03/13 16:24:46;;;;;;;1999.90;999.90;;;;;;;;;;6185429;23;20162;-68
2022/03/13 16:27:31;;;;;;;1999.90;999.90;;;;;;;;;;6185860;23;20253;-69
2022/03/13 16:30:16;;;;;;;1999.90;999.90;;;;;;;;;;6185242;23;20210;-68
2022/03/13 16:33:01;;;;;;;1999.90;999.90;;;;;;;;;;6185271;23;20266;-68
2022/03/13 16:35:46;;;;;;;1999.90;999.90;;;;;;;;;;6185360;23;20214;-68
2022/03/13 16:38:32;;;;;;;1999.90;999.90;;;;;;;;;;6184286;23;20206;-68
2022/03/13 16:41:17;;;;;;;1999.90;999.90;;;;;;;;;;6185337;23;20185;-68
2022/03/13 16:44:02;;;;;;;1999.90;999.90;;;;;;;;;;6185121;23;20276;-69
2022/03/13 16:46:47;;;;;;;1999.90;999.90;;;;;;;;;;6185390;23;20169;-68
2022/03/13 16:49:32;;;;;;;1999.90;999.90;;;;;;;;;;6184204;23;20170;-68
2022/03/13 16:52:17;;;;;;;1999.90;999.90;;;;;;;;;;6183695;23;20376;-71
2022/03/13 16:55:04;;;;;;;1999.90;999.90;;;;;;;;;;6184943;23;20225;-68
2022/03/13 16:57:49;;;;;;;1999.90;999.90;;;;;;;;;;6184007;23;20299;-68
2022/03/13 17:00:34;;;;;;;1999.90;999.90;;;;;;;;;;6185034;23;20218;-69
2022/03/13 17:03:19;;;;;;;1999.90;999.90;;;;;;;;;;6184980;23;20276;-68
2022/03/13 17:06:04;;;;;;;1999.90;999.90;;;;;;;;;;6185107;23;20166;-69
2022/03/13 17:08:50;;;;;;;1999.90;999.90;;;;;;;;;;6184030;23;20304;-68
2022/03/13 17:11:36;;;;;;;1999.90;999.90;;;;;;;;;;6185677;23;20170;-67
2022/03/13 17:14:21;;;;;;;1999.90;999.90;;;;;;;;;;6185901;23;20167;-69